sensor_id;sensor_type;location;lat;lon;timestamp;P1;durP1;ratioP1;P2;durP2;ratioP2
6999;SDS011;3540;53.242;10.408;2023-04-09T00:01:04;29.97;;;18.00;;
6999;SDS011;3540;53.242;10.408;2023-04-09T00:03:30;29.47;;;17.33;;
6999;SDS011;3540;53.242;10.408;2023-04-09T00:05:56;30.73;;;18.17;;
6999;SDS011;3540;53.242;10.408;2023-04-09T00:08:22;30.80;;;16.80;;
6999;SDS011;3540;53.242;10.408;2023-04-09T00:10:50;29.47;;;17.40;;
6999;SDS011;3540;53.242;10.408;2023-04-09T00:13:19;27.63;;;17.03;;
6999;SDS011;3540;53.242;10.408;2023-04-09T00:15:45;32.20;;;18.50;;
6999;SDS011;3540;53.242;10.408;2023-04-09T00:18:11;29.40;;;17.13;;
6999;SDS011;3540;53.242;10.408;2023-04-09T00:20:37;31.17;;;18.10;;
6999;SDS011;3540;53.242;10.408;2023-04-09T00:23:03;31.43;;;17.40;;
6999;SDS011;3540;53.242;10.408;2023-04-09T00:25:29;29.57;;;17.33;;
6999;SDS011;3540;53.242;10.408;2023-04-09T00:27:55;29.60;;;17.60;;
6999;SDS011;3540;53.242;10.408;2023-04-09T00:30:20;30.33;;;18.37;;
6999;SDS011;3540;53.242;10.408;2023-04-09T00:32:46;30.80;;;17.67;;
6999;SDS011;3540;53.242;10.408;2023-04-09T00:35:13;32.07;;;18.50;;
6999;SDS011;3540;53.242;10.408;2023-04-09T00:37:40;30.17;;;17.30;;
6999;SDS011;3540;53.242;10.408;2023-04-09T00:40:05;32.30;;;18.47;;
6999;SDS011;3540;53.242;10.408;2023-04-09T00:42:32;30.47;;;18.13;;
6999;SDS011;3540;53.242;10.408;2023-04-09T00:44:59;29.67;;;17.73;;
6999;SDS011;3540;53.242;10.408;2023-04-09T00:47:25;28.67;;;17.47;;
6999;SDS011;3540;53.242;10.408;2023-04-09T00:49:52;29.77;;;17.83;;
6999;SDS011;3540;53.242;10.408;2023-04-09T00:52:18;33.37;;;19.03;;
6999;SDS011;3540;53.242;10.408;2023-04-09T00:54:45;31.70;;;18.50;;
6999;SDS011;3540;53.242;10.408;2023-04-09T00:57:11;34.30;;;19.73;;
6999;SDS011;3540;53.242;10.408;2023-04-09T00:59:37;31.57;;;19.00;;
6999;SDS011;3540;53.242;10.408;2023-04-09T01:02:03;32.93;;;18.73;;
6999;SDS011;3540;53.242;10.408;2023-04-09T01:04:28;33.63;;;19.20;;
6999;SDS011;3540;53.242;10.408;2023-04-09T01:06:55;34.30;;;19.10;;
6999;SDS011;3540;53.242;10.408;2023-04-09T01:09:34;37.50;;;19.03;;
6999;SDS011;3540;53.242;10.408;2023-04-09T01:12:04;33.40;;;18.67;;
6999;SDS011;3540;53.242;10.408;2023-04-09T01:14:52;32.93;;;18.50;;
6999;SDS011;3540;53.242;10.408;2023-04-09T01:17:25;32.17;;;17.87;;
6999;SDS011;3540;53.242;10.408;2023-04-09T01:20:07;29.03;;;16.90;;
6999;SDS011;3540;53.242;10.408;2023-04-09T01:30:40;27.83;;;16.60;;
6999;SDS011;3540;53.242;10.408;2023-04-09T01:33:11;29.50;;;16.70;;
6999;SDS011;3540;53.242;10.408;2023-04-09T01:35:39;28.50;;;16.83;;
6999;SDS011;3540;53.242;10.408;2023-04-09T01:38:07;27.73;;;16.13;;
6999;SDS011;3540;53.242;10.408;2023-04-09T01:40:34;25.17;;;16.17;;
6999;SDS011;3540;53.242;10.408;2023-04-09T01:43:00;30.13;;;16.63;;
6999;SDS011;3540;53.242;10.408;2023-04-09T01:45:27;26.87;;;16.10;;
6999;SDS011;3540;53.242;10.408;2023-04-09T01:47:53;27.03;;;16.30;;
6999;SDS011;3540;53.242;10.408;2023-04-09T01:50:20;28.03;;;16.47;;
6999;SDS011;3540;53.242;10.408;2023-04-09T01:52:46;31.83;;;17.90;;
6999;SDS011;3540;53.242;10.408;2023-04-09T01:55:12;34.13;;;17.80;;
6999;SDS011;3540;53.242;10.408;2023-04-09T01:57:38;41.27;;;22.57;;
6999;SDS011;3540;53.242;10.408;2023-04-09T02:00:04;41.23;;;22.97;;
6999;SDS011;3540;53.242;10.408;2023-04-09T02:02:41;45.83;;;23.77;;
6999;SDS011;3540;53.242;10.408;2023-04-09T02:05:15;52.40;;;27.67;;
6999;SDS011;3540;53.242;10.408;2023-04-09T02:07:44;54.97;;;27.23;;
6999;SDS011;3540;53.242;10.408;2023-04-09T02:10:14;49.93;;;26.40;;
6999;SDS011;3540;53.242;10.408;2023-04-09T02:12:42;56.40;;;28.63;;
6999;SDS011;3540;53.242;10.408;2023-04-09T02:15:12;57.40;;;28.90;;
6999;SDS011;3540;53.242;10.408;2023-04-09T02:17:39;56.27;;;29.00;;
6999;SDS011;3540;53.242;10.408;2023-04-09T02:20:05;60.23;;;29.07;;
6999;SDS011;3540;53.242;10.408;2023-04-09T02:22:31;58.10;;;29.30;;
6999;SDS011;3540;53.242;10.408;2023-04-09T02:24:57;60.23;;;30.07;;
6999;SDS011;3540;53.242;10.408;2023-04-09T02:27:22;63.00;;;29.83;;
6999;SDS011;3540;53.242;10.408;2023-04-09T02:29:49;63.50;;;31.53;;
6999;SDS011;3540;53.242;10.408;2023-04-09T02:32:14;70.23;;;31.53;;
6999;SDS011;3540;53.242;10.408;2023-04-09T02:34:40;61.43;;;31.77;;
6999;SDS011;3540;53.242;10.408;2023-04-09T02:37:06;71.40;;;31.70;;
6999;SDS011;3540;53.242;10.408;2023-04-09T02:39:32;67.17;;;32.03;;
6999;SDS011;3540;53.242;10.408;2023-04-09T02:41:57;65.47;;;31.23;;
6999;SDS011;3540;53.242;10.408;2023-04-09T02:44:23;70.63;;;31.33;;
6999;SDS011;3540;53.242;10.408;2023-04-09T02:46:49;72.97;;;32.47;;
6999;SDS011;3540;53.242;10.408;2023-04-09T02:49:16;67.30;;;31.23;;
6999;SDS011;3540;53.242;10.408;2023-04-09T02:51:41;65.47;;;31.97;;
6999;SDS011;3540;53.242;10.408;2023-04-09T02:54:07;68.40;;;32.37;;
6999;SDS011;3540;53.242;10.408;2023-04-09T02:56:33;68.30;;;32.73;;
6999;SDS011;3540;53.242;10.408;2023-04-09T02:58:58;63.47;;;31.03;;
6999;SDS011;3540;53.242;10.408;2023-04-09T03:01:24;68.47;;;32.73;;
6999;SDS011;3540;53.242;10.408;2023-04-09T03:03:49;71.07;;;33.50;;
6999;SDS011;3540;53.242;10.408;2023-04-09T03:06:15;69.77;;;33.70;;
6999;SDS011;3540;53.242;10.408;2023-04-09T03:08:42;70.20;;;33.00;;
6999;SDS011;3540;53.242;10.408;2023-04-09T03:11:08;73.97;;;32.70;;
6999;SDS011;3540;53.242;10.408;2023-04-09T03:13:33;69.87;;;32.07;;
6999;SDS011;3540;53.242;10.408;2023-04-09T03:15:59;79.97;;;33.87;;
6999;SDS011;3540;53.242;10.408;2023-04-09T03:18:24;77.27;;;34.03;;
6999;SDS011;3540;53.242;10.408;2023-04-09T03:20:50;71.77;;;33.37;;
6999;SDS011;3540;53.242;10.408;2023-04-09T03:23:15;73.30;;;34.53;;
6999;SDS011;3540;53.242;10.408;2023-04-09T03:25:41;80.90;;;35.30;;
6999;SDS011;3540;53.242;10.408;2023-04-09T03:28:07;76.20;;;34.13;;
6999;SDS011;3540;53.242;10.408;2023-04-09T03:30:32;83.37;;;35.53;;
6999;SDS011;3540;53.242;10.408;2023-04-09T03:32:58;83.43;;;35.27;;
6999;SDS011;3540;53.242;10.408;2023-04-09T03:35:24;85.20;;;35.67;;
6999;SDS011;3540;53.242;10.408;2023-04-09T03:37:50;83.90;;;36.10;;
6999;SDS011;3540;53.242;10.408;2023-04-09T03:40:16;88.03;;;37.20;;
6999;SDS011;3540;53.242;10.408;2023-04-09T03:42:42;87.10;;;37.33;;
6999;SDS011;3540;53.242;10.408;2023-04-09T03:45:08;83.23;;;36.67;;
6999;SDS011;3540;53.242;10.408;2023-04-09T03:47:33;92.03;;;36.83;;
6999;SDS011;3540;53.242;10.408;2023-04-09T03:49:59;83.63;;;35.67;;
6999;SDS011;3540;53.242;10.408;2023-04-09T03:52:25;80.17;;;34.53;;
6999;SDS011;3540;53.242;10.408;2023-04-09T03:54:50;78.63;;;36.33;;
6999;SDS011;3540;53.242;10.408;2023-04-09T03:57:16;81.07;;;35.03;;
6999;SDS011;3540;53.242;10.408;2023-04-09T03:59:42;79.87;;;35.80;;
6999;SDS011;3540;53.242;10.408;2023-04-09T04:02:07;77.83;;;34.50;;
6999;SDS011;3540;53.242;10.408;2023-04-09T04:04:33;85.47;;;35.33;;
6999;SDS011;3540;53.242;10.408;2023-04-09T04:06:58;75.63;;;34.37;;
6999;SDS011;3540;53.242;10.408;2023-04-09T04:09:24;91.97;;;37.47;;
6999;SDS011;3540;53.242;10.408;2023-04-09T04:11:50;79.73;;;33.80;;
6999;SDS011;3540;53.242;10.408;2023-04-09T04:14:16;80.33;;;35.37;;
6999;SDS011;3540;53.242;10.408;2023-04-09T04:16:41;75.17;;;34.53;;
6999;SDS011;3540;53.242;10.408;2023-04-09T04:19:07;77.50;;;33.87;;
6999;SDS011;3540;53.242;10.408;2023-04-09T04:21:32;83.60;;;36.13;;
6999;SDS011;3540;53.242;10.408;2023-04-09T04:23:58;85.70;;;37.07;;
6999;SDS011;3540;53.242;10.408;2023-04-09T04:26:23;83.53;;;36.07;;
6999;SDS011;3540;53.242;10.408;2023-04-09T04:28:49;84.03;;;36.70;;
6999;SDS011;3540;53.242;10.408;2023-04-09T04:31:15;81.43;;;36.90;;
6999;SDS011;3540;53.242;10.408;2023-04-09T04:33:40;82.90;;;35.83;;
6999;SDS011;3540;53.242;10.408;2023-04-09T04:36:10;77.57;;;35.20;;
6999;SDS011;3540;53.242;10.408;2023-04-09T04:38:37;83.30;;;36.50;;
6999;SDS011;3540;53.242;10.408;2023-04-09T04:41:05;77.87;;;35.43;;
6999;SDS011;3540;53.242;10.408;2023-04-09T04:43:31;72.27;;;34.47;;
6999;SDS011;3540;53.242;10.408;2023-04-09T04:45:56;75.60;;;34.97;;
6999;SDS011;3540;53.242;10.408;2023-04-09T04:48:23;64.53;;;30.80;;
6999;SDS011;3540;53.242;10.408;2023-04-09T04:50:55;67.97;;;32.57;;
6999;SDS011;3540;53.242;10.408;2023-04-09T04:53:22;75.47;;;34.43;;
6999;SDS011;3540;53.242;10.408;2023-04-09T04:55:47;66.80;;;31.90;;
6999;SDS011;3540;53.242;10.408;2023-04-09T04:58:13;62.63;;;31.83;;
6999;SDS011;3540;53.242;10.408;2023-04-09T05:00:38;70.43;;;33.70;;
6999;SDS011;3540;53.242;10.408;2023-04-09T05:03:04;70.10;;;31.70;;
6999;SDS011;3540;53.242;10.408;2023-04-09T05:05:30;73.37;;;33.33;;
6999;SDS011;3540;53.242;10.408;2023-04-09T05:07:56;65.50;;;31.30;;
6999;SDS011;3540;53.242;10.408;2023-04-09T05:10:21;64.43;;;31.47;;
6999;SDS011;3540;53.242;10.408;2023-04-09T05:12:47;64.13;;;32.03;;
6999;SDS011;3540;53.242;10.408;2023-04-09T05:15:12;61.67;;;31.53;;
6999;SDS011;3540;53.242;10.408;2023-04-09T05:17:41;65.07;;;31.70;;
6999;SDS011;3540;53.242;10.408;2023-04-09T05:20:07;68.80;;;32.83;;
6999;SDS011;3540;53.242;10.408;2023-04-09T05:22:33;63.13;;;31.33;;
6999;SDS011;3540;53.242;10.408;2023-04-09T05:25:00;58.13;;;30.73;;
6999;SDS011;3540;53.242;10.408;2023-04-09T05:27:26;56.63;;;29.23;;
6999;SDS011;3540;53.242;10.408;2023-04-09T05:29:52;62.43;;;30.73;;
6999;SDS011;3540;53.242;10.408;2023-04-09T05:32:18;56.43;;;29.47;;
6999;SDS011;3540;53.242;10.408;2023-04-09T05:34:43;63.60;;;31.47;;
6999;SDS011;3540;53.242;10.408;2023-04-09T05:37:09;61.40;;;29.43;;
6999;SDS011;3540;53.242;10.408;2023-04-09T05:39:35;63.10;;;31.33;;
6999;SDS011;3540;53.242;10.408;2023-04-09T05:42:01;58.47;;;29.57;;
6999;SDS011;3540;53.242;10.408;2023-04-09T05:44:26;56.60;;;30.23;;
6999;SDS011;3540;53.242;10.408;2023-04-09T05:46:52;61.73;;;30.17;;
6999;SDS011;3540;53.242;10.408;2023-04-09T05:49:17;66.23;;;31.13;;
6999;SDS011;3540;53.242;10.408;2023-04-09T05:51:43;60.90;;;31.67;;
6999;SDS011;3540;53.242;10.408;2023-04-09T05:54:09;69.37;;;31.73;;
6999;SDS011;3540;53.242;10.408;2023-04-09T05:56:34;68.67;;;32.03;;
6999;SDS011;3540;53.242;10.408;2023-04-09T05:59:00;63.93;;;31.30;;
6999;SDS011;3540;53.242;10.408;2023-04-09T06:01:26;63.57;;;31.13;;
6999;SDS011;3540;53.242;10.408;2023-04-09T06:03:51;57.47;;;30.10;;
6999;SDS011;3540;53.242;10.408;2023-04-09T06:06:17;66.57;;;31.17;;
6999;SDS011;3540;53.242;10.408;2023-04-09T06:08:43;61.20;;;30.20;;
6999;SDS011;3540;53.242;10.408;2023-04-09T06:11:12;65.57;;;30.80;;
6999;SDS011;3540;53.242;10.408;2023-04-09T06:13:38;55.97;;;29.07;;
6999;SDS011;3540;53.242;10.408;2023-04-09T06:16:07;56.53;;;29.13;;
6999;SDS011;3540;53.242;10.408;2023-04-09T06:18:34;53.27;;;28.17;;
6999;SDS011;3540;53.242;10.408;2023-04-09T06:21:03;53.43;;;28.30;;
6999;SDS011;3540;53.242;10.408;2023-04-09T06:23:30;60.13;;;28.87;;
6999;SDS011;3540;53.242;10.408;2023-04-09T06:25:57;53.57;;;26.97;;
6999;SDS011;3540;53.242;10.408;2023-04-09T06:28:23;52.07;;;28.60;;
6999;SDS011;3540;53.242;10.408;2023-04-09T06:30:48;51.47;;;28.07;;
6999;SDS011;3540;53.242;10.408;2023-04-09T06:33:14;54.10;;;27.97;;
6999;SDS011;3540;53.242;10.408;2023-04-09T06:35:40;53.67;;;28.33;;
6999;SDS011;3540;53.242;10.408;2023-04-09T06:38:06;53.37;;;27.77;;
6999;SDS011;3540;53.242;10.408;2023-04-09T06:40:34;53.83;;;28.03;;
6999;SDS011;3540;53.242;10.408;2023-04-09T06:43:03;46.57;;;26.43;;
6999;SDS011;3540;53.242;10.408;2023-04-09T06:45:30;44.10;;;25.10;;
6999;SDS011;3540;53.242;10.408;2023-04-09T06:47:56;46.67;;;26.47;;
6999;SDS011;3540;53.242;10.408;2023-04-09T06:50:22;52.93;;;27.77;;
6999;SDS011;3540;53.242;10.408;2023-04-09T06:52:48;54.43;;;28.63;;
6999;SDS011;3540;53.242;10.408;2023-04-09T06:55:15;47.10;;;26.83;;
6999;SDS011;3540;53.242;10.408;2023-04-09T06:57:41;54.97;;;28.63;;
6999;SDS011;3540;53.242;10.408;2023-04-09T07:00:06;52.27;;;29.30;;
6999;SDS011;3540;53.242;10.408;2023-04-09T07:02:33;51.63;;;29.40;;
6999;SDS011;3540;53.242;10.408;2023-04-09T07:05:00;58.33;;;29.77;;
6999;SDS011;3540;53.242;10.408;2023-04-09T07:07:25;59.10;;;30.63;;
6999;SDS011;3540;53.242;10.408;2023-04-09T07:09:51;59.70;;;30.03;;
6999;SDS011;3540;53.242;10.408;2023-04-09T07:12:26;58.13;;;28.90;;
6999;SDS011;3540;53.242;10.408;2023-04-09T07:14:52;57.83;;;29.63;;
6999;SDS011;3540;53.242;10.408;2023-04-09T07:17:21;58.37;;;30.07;;
6999;SDS011;3540;53.242;10.408;2023-04-09T07:19:46;54.73;;;28.93;;
6999;SDS011;3540;53.242;10.408;2023-04-09T07:22:12;51.37;;;28.73;;
6999;SDS011;3540;53.242;10.408;2023-04-09T07:24:37;48.53;;;27.40;;
6999;SDS011;3540;53.242;10.408;2023-04-09T07:27:03;48.87;;;26.90;;
6999;SDS011;3540;53.242;10.408;2023-04-09T07:29:28;52.87;;;27.67;;
6999;SDS011;3540;53.242;10.408;2023-04-09T07:31:54;48.17;;;27.43;;
6999;SDS011;3540;53.242;10.408;2023-04-09T07:34:20;45.43;;;26.63;;
6999;SDS011;3540;53.242;10.408;2023-04-09T07:36:45;45.53;;;27.10;;
6999;SDS011;3540;53.242;10.408;2023-04-09T07:39:11;42.73;;;26.00;;
6999;SDS011;3540;53.242;10.408;2023-04-09T07:41:36;45.30;;;26.97;;
6999;SDS011;3540;53.242;10.408;2023-04-09T07:44:02;44.07;;;26.13;;
6999;SDS011;3540;53.242;10.408;2023-04-09T07:46:28;43.30;;;24.97;;
6999;SDS011;3540;53.242;10.408;2023-04-09T07:48:53;41.63;;;24.37;;
6999;SDS011;3540;53.242;10.408;2023-04-09T07:51:19;37.43;;;23.93;;
6999;SDS011;3540;53.242;10.408;2023-04-09T07:53:45;40.87;;;25.00;;
6999;SDS011;3540;53.242;10.408;2023-04-09T07:56:10;41.17;;;24.03;;
6999;SDS011;3540;53.242;10.408;2023-04-09T07:58:36;40.50;;;24.30;;
6999;SDS011;3540;53.242;10.408;2023-04-09T08:01:02;37.27;;;23.30;;
6999;SDS011;3540;53.242;10.408;2023-04-09T08:03:27;37.90;;;24.23;;
6999;SDS011;3540;53.242;10.408;2023-04-09T08:05:53;38.30;;;21.93;;
6999;SDS011;3540;53.242;10.408;2023-04-09T08:08:19;40.77;;;23.13;;
6999;SDS011;3540;53.242;10.408;2023-04-09T08:10:45;33.50;;;20.73;;
6999;SDS011;3540;53.242;10.408;2023-04-09T08:13:11;34.63;;;21.90;;
6999;SDS011;3540;53.242;10.408;2023-04-09T08:15:37;34.83;;;21.40;;
6999;SDS011;3540;53.242;10.408;2023-04-09T08:18:03;32.67;;;21.10;;
6999;SDS011;3540;53.242;10.408;2023-04-09T08:20:29;35.27;;;21.23;;
6999;SDS011;3540;53.242;10.408;2023-04-09T08:22:56;32.50;;;21.03;;
6999;SDS011;3540;53.242;10.408;2023-04-09T08:25:23;33.93;;;21.13;;
6999;SDS011;3540;53.242;10.408;2023-04-09T08:27:48;34.63;;;20.27;;
6999;SDS011;3540;53.242;10.408;2023-04-09T08:30:14;35.13;;;22.53;;
6999;SDS011;3540;53.242;10.408;2023-04-09T08:32:40;34.93;;;21.20;;
6999;SDS011;3540;53.242;10.408;2023-04-09T08:35:05;30.77;;;19.97;;
6999;SDS011;3540;53.242;10.408;2023-04-09T08:37:32;36.43;;;20.90;;
6999;SDS011;3540;53.242;10.408;2023-04-09T08:39:58;33.20;;;20.07;;
6999;SDS011;3540;53.242;10.408;2023-04-09T08:42:24;29.37;;;19.97;;
6999;SDS011;3540;53.242;10.408;2023-04-09T08:44:50;31.97;;;20.60;;
6999;SDS011;3540;53.242;10.408;2023-04-09T08:47:16;32.00;;;20.67;;
6999;SDS011;3540;53.242;10.408;2023-04-09T08:49:44;29.73;;;20.00;;
6999;SDS011;3540;53.242;10.408;2023-04-09T08:52:12;32.13;;;20.20;;
6999;SDS011;3540;53.242;10.408;2023-04-09T08:54:40;32.43;;;20.03;;
6999;SDS011;3540;53.242;10.408;2023-04-09T08:57:05;35.00;;;20.13;;
6999;SDS011;3540;53.242;10.408;2023-04-09T08:59:31;26.83;;;18.47;;
6999;SDS011;3540;53.242;10.408;2023-04-09T09:02:10;30.17;;;18.80;;
6999;SDS011;3540;53.242;10.408;2023-04-09T09:04:42;29.80;;;19.57;;
6999;SDS011;3540;53.242;10.408;2023-04-09T09:07:10;29.77;;;19.60;;
6999;SDS011;3540;53.242;10.408;2023-04-09T09:09:51;30.87;;;19.67;;
6999;SDS011;3540;53.242;10.408;2023-04-09T09:12:41;31.80;;;20.13;;
6999;SDS011;3540;53.242;10.408;2023-04-09T09:15:26;30.60;;;19.47;;
6999;SDS011;3540;53.242;10.408;2023-04-09T09:17:57;28.43;;;19.33;;
6999;SDS011;3540;53.242;10.408;2023-04-09T09:20:24;29.57;;;18.80;;
6999;SDS011;3540;53.242;10.408;2023-04-09T09:22:52;27.97;;;18.80;;
6999;SDS011;3540;53.242;10.408;2023-04-09T09:25:19;27.53;;;18.93;;
6999;SDS011;3540;53.242;10.408;2023-04-09T09:27:48;26.17;;;17.87;;
6999;SDS011;3540;53.242;10.408;2023-04-09T09:30:36;26.97;;;18.73;;
6999;SDS011;3540;53.242;10.408;2023-04-09T09:33:06;30.33;;;18.40;;
6999;SDS011;3540;53.242;10.408;2023-04-09T09:35:51;29.17;;;19.30;;
6999;SDS011;3540;53.242;10.408;2023-04-09T09:38:18;29.97;;;19.00;;
6999;SDS011;3540;53.242;10.408;2023-04-09T09:40:45;25.77;;;18.03;;
6999;SDS011;3540;53.242;10.408;2023-04-09T09:43:12;27.43;;;17.43;;
6999;SDS011;3540;53.242;10.408;2023-04-09T09:45:39;28.23;;;18.43;;
6999;SDS011;3540;53.242;10.408;2023-04-09T09:48:05;28.53;;;17.90;;
6999;SDS011;3540;53.242;10.408;2023-04-09T09:50:31;26.07;;;18.07;;
6999;SDS011;3540;53.242;10.408;2023-04-09T09:53:05;28.10;;;18.57;;
6999;SDS011;3540;53.242;10.408;2023-04-09T09:55:32;26.60;;;17.80;;
6999;SDS011;3540;53.242;10.408;2023-04-09T09:58:02;26.77;;;18.23;;
6999;SDS011;3540;53.242;10.408;2023-04-09T10:00:41;27.07;;;18.13;;
6999;SDS011;3540;53.242;10.408;2023-04-09T10:03:13;30.17;;;18.73;;
6999;SDS011;3540;53.242;10.408;2023-04-09T10:05:43;26.80;;;17.97;;
6999;SDS011;3540;53.242;10.408;2023-04-09T10:08:10;28.73;;;18.00;;
6999;SDS011;3540;53.242;10.408;2023-04-09T10:10:37;29.83;;;18.73;;
6999;SDS011;3540;53.242;10.408;2023-04-09T10:13:06;30.83;;;18.97;;
6999;SDS011;3540;53.242;10.408;2023-04-09T10:15:36;26.23;;;17.77;;
6999;SDS011;3540;53.242;10.408;2023-04-09T10:18:02;28.30;;;18.20;;
6999;SDS011;3540;53.242;10.408;2023-04-09T10:20:31;28.30;;;18.63;;
6999;SDS011;3540;53.242;10.408;2023-04-09T10:23:02;29.33;;;18.77;;
6999;SDS011;3540;53.242;10.408;2023-04-09T10:25:33;25.93;;;17.83;;
6999;SDS011;3540;53.242;10.408;2023-04-09T10:28:00;27.33;;;18.03;;
6999;SDS011;3540;53.242;10.408;2023-04-09T10:30:35;24.90;;;17.50;;
6999;SDS011;3540;53.242;10.408;2023-04-09T10:33:12;28.77;;;17.47;;
6999;SDS011;3540;53.242;10.408;2023-04-09T10:35:40;26.13;;;16.23;;
6999;SDS011;3540;53.242;10.408;2023-04-09T10:38:08;25.07;;;16.53;;
6999;SDS011;3540;53.242;10.408;2023-04-09T10:40:38;27.00;;;16.77;;
6999;SDS011;3540;53.242;10.408;2023-04-09T10:43:05;27.07;;;16.90;;
6999;SDS011;3540;53.242;10.408;2023-04-09T10:45:40;25.33;;;15.80;;
6999;SDS011;3540;53.242;10.408;2023-04-09T10:48:10;27.77;;;17.67;;
6999;SDS011;3540;53.242;10.408;2023-04-09T10:50:38;26.07;;;17.10;;
6999;SDS011;3540;53.242;10.408;2023-04-09T10:53:06;25.03;;;16.20;;
6999;SDS011;3540;53.242;10.408;2023-04-09T10:58:02;23.07;;;16.53;;
6999;SDS011;3540;53.242;10.408;2023-04-09T11:00:29;22.53;;;15.77;;
6999;SDS011;3540;53.242;10.408;2023-04-09T11:05:33;23.50;;;15.77;;
6999;SDS011;3540;53.242;10.408;2023-04-09T11:08:07;22.53;;;16.13;;
6999;SDS011;3540;53.242;10.408;2023-04-09T11:10:34;19.87;;;14.53;;
6999;SDS011;3540;53.242;10.408;2023-04-09T11:13:01;21.53;;;15.80;;
6999;SDS011;3540;53.242;10.408;2023-04-09T11:15:27;21.33;;;15.57;;
6999;SDS011;3540;53.242;10.408;2023-04-09T11:17:53;20.80;;;15.40;;
6999;SDS011;3540;53.242;10.408;2023-04-09T11:20:20;22.07;;;16.00;;
6999;SDS011;3540;53.242;10.408;2023-04-09T11:22:48;22.33;;;15.10;;
6999;SDS011;3540;53.242;10.408;2023-04-09T11:25:19;21.60;;;15.23;;
6999;SDS011;3540;53.242;10.408;2023-04-09T11:27:52;20.30;;;14.83;;
6999;SDS011;3540;53.242;10.408;2023-04-09T11:30:18;23.07;;;14.83;;
6999;SDS011;3540;53.242;10.408;2023-04-09T11:32:43;24.13;;;15.90;;
6999;SDS011;3540;53.242;10.408;2023-04-09T11:35:10;21.53;;;14.70;;
6999;SDS011;3540;53.242;10.408;2023-04-09T11:37:37;25.63;;;15.87;;
6999;SDS011;3540;53.242;10.408;2023-04-09T11:40:03;22.20;;;15.40;;
6999;SDS011;3540;53.242;10.408;2023-04-09T11:42:30;21.30;;;15.00;;
6999;SDS011;3540;53.242;10.408;2023-04-09T11:44:55;18.57;;;14.40;;
6999;SDS011;3540;53.242;10.408;2023-04-09T11:47:21;21.83;;;14.70;;
6999;SDS011;3540;53.242;10.408;2023-04-09T11:49:47;19.90;;;14.73;;
6999;SDS011;3540;53.242;10.408;2023-04-09T11:52:13;19.63;;;14.60;;
6999;SDS011;3540;53.242;10.408;2023-04-09T11:54:46;19.40;;;14.10;;
6999;SDS011;3540;53.242;10.408;2023-04-09T11:57:13;20.70;;;14.70;;
6999;SDS011;3540;53.242;10.408;2023-04-09T11:59:39;21.77;;;15.07;;
6999;SDS011;3540;53.242;10.408;2023-04-09T12:02:05;19.33;;;14.30;;
6999;SDS011;3540;53.242;10.408;2023-04-09T12:04:31;20.37;;;14.50;;
6999;SDS011;3540;53.242;10.408;2023-04-09T12:06:57;18.93;;;14.10;;
6999;SDS011;3540;53.242;10.408;2023-04-09T12:09:23;19.60;;;14.27;;
6999;SDS011;3540;53.242;10.408;2023-04-09T12:11:49;18.40;;;13.00;;
6999;SDS011;3540;53.242;10.408;2023-04-09T12:14:15;19.97;;;12.97;;
6999;SDS011;3540;53.242;10.408;2023-04-09T12:16:42;16.03;;;12.43;;
6999;SDS011;3540;53.242;10.408;2023-04-09T12:19:09;17.33;;;12.70;;
6999;SDS011;3540;53.242;10.408;2023-04-09T12:24:18;15.33;;;12.73;;
6999;SDS011;3540;53.242;10.408;2023-04-09T12:26:46;16.70;;;12.33;;
6999;SDS011;3540;53.242;10.408;2023-04-09T12:29:13;19.17;;;12.47;;
6999;SDS011;3540;53.242;10.408;2023-04-09T12:31:39;19.20;;;13.27;;
6999;SDS011;3540;53.242;10.408;2023-04-09T12:34:05;20.97;;;13.83;;
6999;SDS011;3540;53.242;10.408;2023-04-09T12:36:31;18.73;;;14.23;;
6999;SDS011;3540;53.242;10.408;2023-04-09T12:38:57;20.57;;;14.20;;
6999;SDS011;3540;53.242;10.408;2023-04-09T12:41:22;19.33;;;14.10;;
6999;SDS011;3540;53.242;10.408;2023-04-09T12:43:48;21.43;;;13.87;;
6999;SDS011;3540;53.242;10.408;2023-04-09T12:46:14;21.17;;;14.93;;
6999;SDS011;3540;53.242;10.408;2023-04-09T12:48:41;19.83;;;15.03;;
6999;SDS011;3540;53.242;10.408;2023-04-09T12:51:07;18.93;;;14.07;;
6999;SDS011;3540;53.242;10.408;2023-04-09T12:53:35;17.13;;;12.20;;
6999;SDS011;3540;53.242;10.408;2023-04-09T12:56:00;16.03;;;12.60;;
6999;SDS011;3540;53.242;10.408;2023-04-09T12:58:26;16.10;;;12.37;;
6999;SDS011;3540;53.242;10.408;2023-04-09T13:00:52;15.10;;;11.50;;
6999;SDS011;3540;53.242;10.408;2023-04-09T13:03:18;15.70;;;12.30;;
6999;SDS011;3540;53.242;10.408;2023-04-09T13:05:45;14.67;;;11.50;;
6999;SDS011;3540;53.242;10.408;2023-04-09T13:08:11;16.63;;;12.50;;
6999;SDS011;3540;53.242;10.408;2023-04-09T13:10:36;15.10;;;12.20;;
6999;SDS011;3540;53.242;10.408;2023-04-09T13:13:02;16.93;;;12.10;;
6999;SDS011;3540;53.242;10.408;2023-04-09T13:15:28;15.00;;;12.03;;
6999;SDS011;3540;53.242;10.408;2023-04-09T13:17:54;14.53;;;11.53;;
6999;SDS011;3540;53.242;10.408;2023-04-09T13:20:20;15.07;;;11.60;;
6999;SDS011;3540;53.242;10.408;2023-04-09T13:22:45;14.97;;;11.03;;
6999;SDS011;3540;53.242;10.408;2023-04-09T13:25:13;14.77;;;11.37;;
6999;SDS011;3540;53.242;10.408;2023-04-09T13:27:39;17.07;;;12.17;;
6999;SDS011;3540;53.242;10.408;2023-04-09T13:30:05;16.30;;;12.13;;
6999;SDS011;3540;53.242;10.408;2023-04-09T13:32:31;15.63;;;11.87;;
6999;SDS011;3540;53.242;10.408;2023-04-09T13:34:57;15.00;;;11.50;;
6999;SDS011;3540;53.242;10.408;2023-04-09T13:37:22;15.33;;;11.83;;
6999;SDS011;3540;53.242;10.408;2023-04-09T13:39:48;15.97;;;11.27;;
6999;SDS011;3540;53.242;10.408;2023-04-09T13:42:15;14.53;;;11.20;;
6999;SDS011;3540;53.242;10.408;2023-04-09T13:44:41;14.57;;;10.83;;
6999;SDS011;3540;53.242;10.408;2023-04-09T13:47:12;13.30;;;9.83;;
6999;SDS011;3540;53.242;10.408;2023-04-09T13:49:38;13.23;;;10.10;;
6999;SDS011;3540;53.242;10.408;2023-04-09T13:52:05;13.70;;;9.50;;
6999;SDS011;3540;53.242;10.408;2023-04-09T13:54:31;13.67;;;10.20;;
6999;SDS011;3540;53.242;10.408;2023-04-09T13:56:57;12.53;;;10.30;;
6999;SDS011;3540;53.242;10.408;2023-04-09T13:59:23;13.03;;;9.60;;
6999;SDS011;3540;53.242;10.408;2023-04-09T14:01:49;12.20;;;9.23;;
6999;SDS011;3540;53.242;10.408;2023-04-09T14:04:15;12.60;;;9.70;;
6999;SDS011;3540;53.242;10.408;2023-04-09T14:06:40;11.90;;;9.87;;
6999;SDS011;3540;53.242;10.408;2023-04-09T14:09:07;13.60;;;10.20;;
6999;SDS011;3540;53.242;10.408;2023-04-09T14:11:33;13.93;;;9.87;;
6999;SDS011;3540;53.242;10.408;2023-04-09T14:13:59;11.63;;;9.17;;
6999;SDS011;3540;53.242;10.408;2023-04-09T14:16:25;11.63;;;8.70;;
6999;SDS011;3540;53.242;10.408;2023-04-09T14:18:51;14.57;;;9.03;;
6999;SDS011;3540;53.242;10.408;2023-04-09T14:21:17;13.63;;;9.33;;
6999;SDS011;3540;53.242;10.408;2023-04-09T14:23:46;13.77;;;8.77;;
6999;SDS011;3540;53.242;10.408;2023-04-09T14:26:12;11.30;;;9.07;;
6999;SDS011;3540;53.242;10.408;2023-04-09T14:28:38;12.90;;;10.03;;
6999;SDS011;3540;53.242;10.408;2023-04-09T14:31:03;13.30;;;9.80;;
6999;SDS011;3540;53.242;10.408;2023-04-09T14:33:29;15.90;;;10.37;;
6999;SDS011;3540;53.242;10.408;2023-04-09T14:35:55;12.63;;;9.70;;
6999;SDS011;3540;53.242;10.408;2023-04-09T14:38:22;10.73;;;9.53;;
6999;SDS011;3540;53.242;10.408;2023-04-09T14:40:48;10.00;;;8.10;;
6999;SDS011;3540;53.242;10.408;2023-04-09T14:43:17;9.03;;;7.70;;
6999;SDS011;3540;53.242;10.408;2023-04-09T14:45:43;10.47;;;7.27;;
6999;SDS011;3540;53.242;10.408;2023-04-09T14:48:08;9.23;;;7.27;;
6999;SDS011;3540;53.242;10.408;2023-04-09T14:50:34;11.57;;;8.97;;